x

New Dungeness - 17 Nm Ne Of Port Angeles, Wa (46088) Wave Buoy

11:50pm - Sun 21st Dec 2014 All times are PST. -8 hours from GMT.

  • Sig Wave height 2.6ft
  • Swell Direction
  • Peak Period 3s
  • Average Period 4s
  • Wind
    20mph, 25mph gusts
  • Sea Temp 48°f
  • Air Temp 50°f
  • Sea Pressure 1019.3mb
  • New Dungeness - 17 Nm Ne Of Port Angeles, Wa
  • New Dungeness - 17 Nm Ne Of Port Angeles, Wa

More Historic Weather Station data

Upgrade to MSW Pro to gain access to the past 30 days of data for over 8000 Wavebouys and Weather Stations around the globe.

Join Pro

Comparision Forecast

View Surf forecast
   
Sun 12/21 11:50pm 2.5ft 3s 4s 20 25 mph 1019.3mb 48f 50f
11:20pm 2ft 3s 4s 22 27 mph 1018.8mb 48f 51f
10:50pm 2ft 4s 4s 18 20 mph 1018.4mb 48f 51f
10:20pm 2ft 11s 5s 9 13 mph 1018.3mb 48f 50f
9:50pm 2.5ft 12s 5s 11 13 mph 1018.1mb 48f 50f
9:20pm 2.5ft 11s 5s 18 20 mph 1017.7mb 48f 51f
8:50pm 2ft 12s 4s 22 27 mph 1017.2mb 49f 51f
8:20pm 1.6ft 6s 4s 22 27 mph 1016.8mb 49f 51f
7:50pm 1.6ft 6s 5s 16 18 mph 1016.8mb 49f 51f
7:20pm 2ft 6s 5s 18 20 mph 1017.1mb 48f 51f
6:50pm 2.5ft 6s 5s 18 20 mph 1016.9mb 48f 51f
6:20pm 2.5ft 6s 5s 18 22 mph 1016.7mb 48f 52f
5:50pm 2ft 5s 4s 16 20 mph 1016.3mb 48f 52f
5:20pm 1.6ft 5s 4s 20 22 mph 1015.9mb 48f 52f
4:50pm 2.5ft 4s 4s 16 18 mph 1015.5mb 48f 51f
4:20pm 2ft 4s 4s 16 18 mph 1015.5mb 48f 51f
3:50pm 2ft 4s 4s 9 11 mph 1015.6mb 48f 51f
3:20pm 2.5ft 4s 4s 11 13 mph 1015.4mb 48f 51f
2:50pm 2.5ft 4s 4s 18 20 mph 1014.8mb 48f 51f
2:20pm 2.5ft 4s 4s 16 20 mph 1014.2mb 48f 51f
1:50pm 2.5ft 4s 4s 13 16 mph 1014mb 48f 50f
1:20pm 3.5ft 10s 5s 16 20 mph 1013.9mb 48f 51f
12:50pm 2.5ft 11s 4s 18 20 mph 1013.4mb 48f 51f
12:20pm 2.5ft 4s 4s 13 16 mph 1013.1mb 48f 50f
11:50am 2ft 4s 4s 11 13 mph 1013.3mb 48f 50f
11:20am 2.5ft 4s 4s 11 13 mph 1012.9mb 48f 50f
10:50am 2.5ft 4s 4s 13 18 mph 1012.1mb 48f 50f
10:20am 2.5ft 4s 4s 18 20 mph 1012.4mb 48f 49f
9:50am 2ft 5s 4s 11 22 mph 1012.1mb 48f 50f
9:20am 2ft 5s 4s 9 11 mph 1011.3mb 48f 50f
8:50am 2.5ft 5s 4s 16 18 mph 1010.9mb 48f 50f
8:20am 2.5ft 4s 4s 22 27 mph 1010.1mb 48f 50f
7:50am 2.5ft 5s 4s 20 25 mph 1009mb 48f 49f
7:20am 2ft 4s 4s 22 27 mph 1008.6mb 48f 49f
6:50am 2ft 3s 4s 20 25 mph 1008mb 48f 48f
6:20am 2ft 3s 3s 20 22 mph 1007.4mb 48f 49f
5:50am 2.5ft 3s 3s 20 25 mph 1007.5mb 48f 48f
4:50am 2ft 3s 3s 20 22 mph 1006.3mb 49f 48f
4:20am 2.5ft 3s 3s 20 25 mph 1006.1mb 49f 48f
3:50am 3ft 4s 3s 20 25 mph 1006mb 49f 49f
3:20am 3.5ft 3s 3s 22 27 mph 1005.3mb 49f 50f
2:50am 3.5ft 4s 4s 27 31 mph 1004.5mb 49f 51f
2:20am 4ft 4s 4s 25 29 mph 1003.5mb 49f 51f
1:50am 4.5ft 4s 4s 27 31 mph 1002.3mb 49f 51f
1:20am 5.5ft 5s 4s 29 36 mph 1001.6mb 49f 51f
12:50am 6ft 5s 5s 29 34 mph 1000.6mb 49f 51f
12:20am 6ft 5s 5s 31 38 mph 999.8mb 49f 51f
Sat 12/20 11:50pm 6ft 5s 5s 29 38 mph 998.2mb 49f 51f
11:20pm 4.5ft 5s 4s 29 38 mph 997.1mb 49f 53f
10:50pm 3.5ft 5s 4s 11 22 mph 997.4mb 49f 52f
10:20pm 3ft 5s 4s 4 7 mph 996.1mb 49f 50f
9:50pm 2.5ft 4s 4s 11 16 mph 995.5mb 49f 53f
9:20pm 1.6ft 10s 4s 18 22 mph 995mb 49f 53f
8:50pm 1.6ft 3s 4s 18 20 mph 994.9mb 49f 53f
8:20pm 1.6ft 3s 3s 13 20 mph 994.7mb 49f 53f
7:50pm 2ft 3s 3s 16 20 mph 994.9mb 49f 53f
7:20pm 2.5ft 4s 4s 13 18 mph 994.4mb 49f 50f
6:50pm 2.5ft 4s 4s 13 20 mph 994.4mb 49f 49f
6:20pm 3ft 4s 4s 13 22 mph 994mb 49f 50f
5:50pm 3.5ft 5s 4s 16 20 mph 994mb 49f 49f
5:20pm 3.5ft 4s 4s 18 22 mph 993.7mb 49f 49f
4:50pm 4.5ft 5s 4s 22 27 mph 993.5mb 48f 49f
4:20pm 5ft 5s 4s 27 31 mph 993.4mb 48f 49f
3:50pm 4.5ft 5s 4s 25 29 mph 993.3mb 48f 49f
3:20pm 5ft 5s 4s 27 34 mph 993.8mb 48f 49f
2:50pm 4.5ft 5s 4s 25 29 mph 995mb 48f 49f
2:20pm 5ft 5s 5s 27 31 mph 995.1mb 48f 49f
1:50pm 5ft 6s 4s 27 31 mph 995.1mb 48f 49f
1:20pm 5ft 5s 4s 29 34 mph 995.4mb 48f 48f
12:50pm 5ft 5s 4s 27 34 mph 996.2mb 48f 48f
12:20pm 5.5ft 6s 5s 31 38 mph 996.3mb 48f 48f
11:50am 5ft 6s 5s 29 36 mph 997.2mb 48f 48f
11:20am 6ft 6s 5s 31 38 mph 997.7mb 48f 48f
10:50am 5.5ft 6s 5s 31 36 mph 998.4mb 48f 47f
10:20am 5.5ft 6s 5s 31 38 mph 999.3mb 48f 48f
9:50am 6ft 6s 5s 31 40 mph 999.3mb 48f 48f
9:20am 6ft 6s 5s 34 40 mph 999.3mb 48f 47f
8:50am 6ft 6s 5s 31 38 mph 999mb 48f 47f
8:20am 7.5ft 6s 5s 31 40 mph 999.1mb 48f 48f
7:50am 6.5ft 6s 5s 31 40 mph 999.1mb 48f 48f
7:20am 6ft 6s 5s 31 38 mph 999.6mb 48f 48f
6:50am 6ft 6s 5s 31 40 mph 999.8mb 48f 48f
6:20am 6.5ft 6s 5s 29 38 mph 1000mb 48f 47f
5:50am 7ft 6s 5s 34 45 mph 1000.5mb 48f 47f
5:20am 6.5ft 5s 5s 36 45 mph 1000.5mb 48f 47f
4:50am 6.5ft 6s 5s 36 40 mph 1001mb 48f 48f
4:20am 7ft 6s 5s 34 43 mph 1001.6mb 48f 48f
3:50am 7ft 6s 5s 34 43 mph 1002.2mb 48f 48f
3:20am 7ft 6s 5s 34 43 mph 1002.9mb 48f 48f
2:50am 6ft 6s 5s 36 45 mph 1003.4mb 48f 47f
2:20am 4.5ft 5s 4s 36 43 mph 1004mb 48f 48f
1:50am 4.5ft 5s 4s 29 36 mph 1004.8mb 49f 48f
1:20am 4ft 5s 4s 31 40 mph 1005.2mb 49f 48f
12:50am 3ft 5s 4s 31 40 mph 1006.1mb 49f 48f
12:20am 2.5ft 4s 4s 25 29 mph 1007.4mb 49f 48f
Fri 12/19 11:50pm 2.5ft 5s 4s 22 27 mph 1008.1mb 49f 48f
11:20pm 2ft 4s 4s 16 18 mph 1009mb 49f 48f
10:50pm 2ft 4s 4s 7 9 mph 1009.3mb 49f 48f
10:20pm 1.6ft 4s 4s 9 11 mph 1009.3mb 49f 48f
9:50pm 1.6ft 4s 4s 9 11 mph 1009.4mb 49f 48f
9:20pm 1.6ft 11s 4s 11 13 mph 1009.7mb 49f 47f
8:50pm 1.3ft 10s 4s 11 13 mph 1010.2mb 49f 48f
8:20pm 1.3ft 10s 4s 7 13 mph 1010.8mb 49f 47f
7:50pm 1.6ft 3s 3s 9 11 mph 1011.4mb 49f 47f
7:20pm 1.6ft 3s 3s 13
mph
1011.6mb 49f 47f
6:50pm 2ft 3s 3s 11 13 mph 1011.7mb 49f 48f
6:20pm 1.6ft 3s 3s 13 16 mph 1011.9mb 49f 48f
5:50pm 1ft 3s 3s 11 16 mph 1012.1mb 48f 48f
5:20pm 0.7ft  -  4s 2
mph
1012.1mb 48f 47f
4:50pm 0.7ft  -  4s 2 4 mph 1012.1mb 48f 47f
4:20pm  -   -   -  4
mph
1012.2mb 48f 47f
3:50pm  -   -   -  2
mph
1012.3mb 48f 47f
3:20pm  -   -   -  2
mph
1012.3mb 48f 47f
2:50pm  -   -   -  2 4 mph 1012mb 48f 47f
2:20pm  -   -   -  2 7 mph 1012.1mb 48f 47f
1:50pm  -   -   -  2 4 mph 1012.2mb 48f 47f
1:20pm  -   -   -  4 7 mph 1011.9mb 48f 47f
12:50pm  -   -   -  4
mph
1012.2mb 48f 47f
12:20pm  -   -   -  2 4 mph 1012.5mb 48f 47f
11:50am  -   -   -  9 11 mph 1012.4mb 48f 47f
11:20am  -   -   -  7 9 mph 1012.2mb 48f 47f
10:50am  -   -   -  9 11 mph 1012.2mb 48f 48f
10:20am 0.7ft  -  3s 9 11 mph 1012mb 48f 48f
9:50am 0.7ft  -  3s 7 11 mph 1011.5mb 48f 48f
9:20am 0.7ft  -  3s 9
mph
1011mb 48f 48f
8:50am 1ft 3s 3s  -  2 mph 1010.6mb 48f 48f
8:20am 0.7ft  -  3s 4 7 mph 1009.9mb 48f 47f
7:50am 0.7ft  -  3s 9 11 mph 1009.6mb 48f 47f
7:20am 0.7ft  -  3s 9 11 mph 1009.5mb 48f 47f
6:50am 0.7ft  -  3s 9 13 mph 1009.2mb 48f 48f
6:20am 0.7ft  -  3s  -  2 mph 1009.2mb 48f 48f
5:50am 0.7ft  -  3s 7 9 mph 1008.6mb 48f 48f
5:20am 0.7ft  -  3s 7 9 mph 1008.1mb 48f 48f
4:20am 0.7ft  -  3s  -  2 mph 1008mb 48f 48f
3:50am 0.7ft  -  3s 4
mph
1007.7mb 48f 48f
3:20am 0.7ft  -  3s 2 4 mph 1007.6mb 49f 48f
2:50am 1ft 4s 3s 2
mph
1007.5mb 49f 48f
2:20am 1ft 5s 4s  -  2 mph 1007.2mb 49f 48f
1:50am 1ft 5s 4s 2
mph
1007mb 49f 48f
1:20am 1ft 5s 4s 2 4 mph 1006.6mb 49f 48f
12:50am 1.3ft 5s 4s 4
mph
1006mb 49f 48f
12:20am 1.6ft 4s 4s 7 9 mph 1005.9mb 49f 49f
Thu 12/18 11:50pm 1.6ft 4s 4s 11 13 mph 1005.6mb 49f 48f
11:20pm 2.5ft 4s 4s 11 13 mph 1005.4mb 49f 48f
10:50pm 3ft 5s 4s 7 9 mph 1005mb 49f 49f
10:20pm 4ft 5s 4s 7 9 mph 1004.7mb 49f 49f
9:50pm 5ft 5s 4s 22 31 mph 1004mb 49f 49f
9:20pm 5.5ft 5s 4s 29 36 mph 1002.6mb 49f 50f
8:50pm 5ft 5s 4s 31 40 mph 1002.1mb 49f 50f
8:20pm 5.5ft 5s 4s 38 49 mph 1001.4mb 49f 50f
7:50pm 5ft 5s 4s 36 43 mph 1002.1mb 49f 49f
7:20pm 5ft 5s 4s 34 45 mph 1002.5mb 49f 49f
6:50pm 6ft 5s 5s 31 38 mph 1003mb 49f 49f
6:20pm 6ft 6s 5s 29 36 mph 1003.6mb 49f 49f
5:50pm 4.5ft 5s 4s 25 31 mph 1004.3mb 48f 50f
5:20pm 4.5ft 5s 4s 29 38 mph 1003.7mb 48f 49f
4:50pm 4.5ft 5s 4s 29 38 mph 1004.2mb 48f 50f
4:20pm 4.5ft 5s 4s 29 36 mph 1003.9mb 48f 49f
3:50pm 5ft 5s 4s 27 34 mph 1004.5mb 48f 49f
3:20pm 5ft 5s 4s 27 31 mph 1005.3mb 48f 49f
2:50pm 4.5ft 5s 4s 27 34 mph 1005.3mb 48f 49f
2:20pm 4.5ft 5s 4s 27 36 mph 1005.9mb 48f 49f
1:50pm 3.5ft 5s 4s 25 31 mph 1006.4mb 48f 49f
1:20pm 3.5ft 5s 4s 27 36 mph 1006.8mb 48f 49f
12:50pm 3.5ft 5s 4s 22 27 mph 1007.7mb 48f 48f
12:20pm 2.5ft 4s 4s 25 29 mph 1008.3mb 48f 49f
11:50am 2ft 4s 3s 25 27 mph 1008.6mb 48f 48f
11:20am 1.6ft 3s 3s 20 25 mph 1009.5mb 48f 48f
10:50am 1.3ft 3s 3s 20 25 mph 1010.2mb 48f 48f
10:20am 1ft 10s 4s 11 18 mph 1010.8mb 48f 47f
9:50am 0.7ft  -  4s 2 4 mph 1011.4mb 48f 46f
9:20am 0.7ft  -  3s 7
mph
1011.6mb 48f 46f